createdAt,value
2023-07-07T00:02:16.024Z,16.50
2023-07-07T00:04:42.794Z,16.50
2023-07-07T00:07:09.609Z,16.50
2023-07-07T00:09:36.384Z,16.50
2023-07-07T00:12:03.205Z,16.50
2023-07-07T00:14:30.045Z,16.40
2023-07-07T00:17:03.057Z,16.40
2023-07-07T00:19:34.335Z,16.40
2023-07-07T00:22:07.239Z,16.30
2023-07-07T00:24:35.112Z,16.30
2023-07-07T00:27:01.950Z,16.30
2023-07-07T00:29:28.772Z,16.30
2023-07-07T00:31:55.559Z,16.30
2023-07-07T00:34:22.357Z,16.30
2023-07-07T00:36:49.244Z,16.20
2023-07-07T00:39:16.197Z,16.30
2023-07-07T00:41:42.988Z,16.20
2023-07-07T00:44:11.306Z,16.20
2023-07-07T00:46:38.757Z,16.20
2023-07-07T00:49:16.347Z,16.20
2023-07-07T00:51:48.145Z,16.10
2023-07-07T00:54:17.154Z,16.00
2023-07-07T00:56:51.522Z,16.00
2023-07-07T00:59:21.760Z,16.00
2023-07-07T01:01:50.528Z,16.00
2023-07-07T01:04:18.055Z,16.00
2023-07-07T01:06:48.673Z,15.90
2023-07-07T01:09:15.790Z,15.90
2023-07-07T01:11:43.068Z,15.90
2023-07-07T01:14:12.535Z,15.90
2023-07-07T01:16:54.336Z,15.80
2023-07-07T01:19:51.134Z,15.80
2023-07-07T01:22:36.847Z,15.70
2023-07-07T01:25:24.947Z,15.70
2023-07-07T01:27:54.529Z,15.60
2023-07-07T01:30:46.144Z,15.60
2023-07-07T01:33:17.805Z,15.60
2023-07-07T01:35:44.693Z,15.60
2023-07-07T01:38:30.316Z,15.50
2023-07-07T01:41:04.821Z,15.50
2023-07-07T01:43:57.470Z,15.40
2023-07-07T01:46:27.545Z,15.40
2023-07-07T01:48:59.058Z,15.30
2023-07-07T01:51:28.915Z,15.30
2023-07-07T01:53:55.700Z,15.30
2023-07-07T01:56:24.324Z,15.20
2023-07-07T01:58:51.645Z,15.10
2023-07-07T02:01:19.363Z,15.10
2023-07-07T02:03:46.256Z,15.10
2023-07-07T02:06:13.044Z,15.20
2023-07-07T02:08:39.806Z,15.10
2023-07-07T02:11:06.622Z,15.20
2023-07-07T02:13:35.488Z,15.10
2023-07-07T02:16:02.302Z,15.10
2023-07-07T02:18:29.146Z,15.10
2023-07-07T02:20:56.273Z,15.10
2023-07-07T02:23:23.445Z,15.10
2023-07-07T02:25:50.186Z,15.10
2023-07-07T02:28:16.957Z,15.10
2023-07-07T02:30:43.716Z,15.10
2023-07-07T02:33:10.522Z,15.10
2023-07-07T02:35:37.348Z,15.20
2023-07-07T02:38:04.105Z,15.10
2023-07-07T02:40:31.008Z,15.10
2023-07-07T02:42:57.775Z,15.00
2023-07-07T02:45:24.601Z,15.10
2023-07-07T02:47:51.440Z,15.00
2023-07-07T02:50:18.878Z,15.00
2023-07-07T02:52:45.646Z,15.00
2023-07-07T02:55:12.405Z,15.00
2023-07-07T02:57:39.306Z,15.00
2023-07-07T03:00:10.328Z,15.00
2023-07-07T03:02:37.305Z,15.00
2023-07-07T03:05:04.355Z,15.00
2023-07-07T03:07:31.130Z,14.90
2023-07-07T03:09:57.927Z,14.90
2023-07-07T03:12:24.690Z,14.90
2023-07-07T03:14:55.487Z,14.80
2023-07-07T03:17:23.019Z,14.80
2023-07-07T03:19:49.824Z,14.80
2023-07-07T03:22:16.697Z,14.80
2023-07-07T03:24:43.434Z,14.80
2023-07-07T03:27:10.168Z,14.80
2023-07-07T03:29:36.954Z,14.70
2023-07-07T03:32:03.822Z,14.70
2023-07-07T03:34:30.617Z,14.80
2023-07-07T03:36:57.345Z,14.80
2023-07-07T03:39:24.078Z,14.70
2023-07-07T03:41:50.836Z,14.70
2023-07-07T03:44:17.653Z,14.70
2023-07-07T03:46:44.472Z,14.70
2023-07-07T03:49:11.244Z,14.60
2023-07-07T03:51:38.674Z,14.40
2023-07-07T03:54:06.117Z,14.50
2023-07-07T03:56:32.918Z,14.50
2023-07-07T03:58:59.709Z,14.40
2023-07-07T04:01:26.694Z,14.30
2023-07-07T04:03:53.609Z,14.20
2023-07-07T04:06:20.790Z,14.20
2023-07-07T04:08:47.690Z,14.30
2023-07-07T04:11:17.385Z,14.30
2023-07-07T04:13:47.343Z,14.30
2023-07-07T04:16:23.650Z,14.30
2023-07-07T04:18:51.727Z,14.30
2023-07-07T04:21:20.479Z,14.30
2023-07-07T04:23:48.390Z,14.30
2023-07-07T04:26:15.876Z,14.30
2023-07-07T04:28:42.718Z,14.30
2023-07-07T04:31:10.325Z,14.40
2023-07-07T04:33:37.534Z,14.40
2023-07-07T04:36:06.184Z,14.40
2023-07-07T04:38:33.267Z,14.40
2023-07-07T04:41:11.721Z,14.40
2023-07-07T04:43:43.818Z,14.40
2023-07-07T04:46:12.046Z,14.40
2023-07-07T04:48:39.079Z,14.30
2023-07-07T04:51:07.599Z,14.40
2023-07-07T04:53:35.683Z,14.40
2023-07-07T04:56:05.928Z,14.50
2023-07-07T04:58:32.680Z,14.50
2023-07-07T05:01:13.571Z,14.50
2023-07-07T05:03:41.263Z,14.50
2023-07-07T05:06:08.191Z,14.50
2023-07-07T05:08:37.962Z,14.60
2023-07-07T05:11:05.103Z,14.50
2023-07-07T05:13:32.913Z,14.60
2023-07-07T05:16:10.386Z,14.60
2023-07-07T05:18:37.262Z,14.70
2023-07-07T05:21:06.813Z,14.70
2023-07-07T05:23:34.066Z,14.80
2023-07-07T05:26:00.920Z,14.80
2023-07-07T05:28:27.690Z,14.90
2023-07-07T05:30:54.587Z,15.00
2023-07-07T05:33:22.034Z,15.10
2023-07-07T05:35:49.186Z,15.10
2023-07-07T05:38:17.259Z,15.20
2023-07-07T05:40:44.784Z,15.20
2023-07-07T05:43:11.581Z,15.30
2023-07-07T05:45:38.356Z,15.30
2023-07-07T05:48:06.179Z,15.40
2023-07-07T05:50:33.291Z,15.50
2023-07-07T05:53:00.251Z,15.50
2023-07-07T05:55:31.672Z,15.60
2023-07-07T05:57:58.483Z,15.60
2023-07-07T06:00:26.330Z,15.70
2023-07-07T06:02:53.204Z,15.80
2023-07-07T06:05:20.064Z,15.80
2023-07-07T06:07:47.414Z,15.90
2023-07-07T06:10:14.327Z,16.00
2023-07-07T06:12:41.173Z,16.00
2023-07-07T06:15:08.534Z,16.10
2023-07-07T06:17:35.438Z,16.20
2023-07-07T06:20:02.399Z,16.20
2023-07-07T06:22:29.197Z,16.30
2023-07-07T06:24:55.948Z,16.40
2023-07-07T06:27:22.777Z,16.40
2023-07-07T06:29:50.674Z,16.50
2023-07-07T06:32:17.490Z,16.60
2023-07-07T06:34:44.264Z,16.70
2023-07-07T06:37:11.255Z,16.80
2023-07-07T06:39:38.041Z,16.80
2023-07-07T06:42:05.097Z,17.00
2023-07-07T06:44:33.879Z,17.10
2023-07-07T06:47:01.294Z,17.10
2023-07-07T06:49:28.075Z,17.30
2023-07-07T06:51:54.939Z,17.30
2023-07-07T06:54:21.867Z,17.40
2023-07-07T06:56:48.646Z,17.50
2023-07-07T06:59:15.353Z,17.50
2023-07-07T07:01:42.173Z,17.60
2023-07-07T07:04:09.149Z,17.60
2023-07-07T07:06:35.947Z,17.70
2023-07-07T07:09:02.765Z,17.80
2023-07-07T07:11:29.514Z,17.80
2023-07-07T07:13:56.281Z,17.90
2023-07-07T07:16:23.072Z,17.90
2023-07-07T07:18:49.946Z,18.00
2023-07-07T07:21:16.963Z,18.10
2023-07-07T07:23:43.751Z,18.20
2023-07-07T07:26:10.568Z,18.20
2023-07-07T07:28:37.413Z,18.30
2023-07-07T07:31:04.206Z,18.40
2023-07-07T07:33:32.261Z,18.50
2023-07-07T07:35:59.108Z,18.60
2023-07-07T07:38:26.066Z,18.60
2023-07-07T07:40:53.652Z,18.70
2023-07-07T07:43:21.370Z,18.70
2023-07-07T07:45:48.244Z,18.80
2023-07-07T07:48:15.404Z,18.80
2023-07-07T07:50:42.179Z,18.90
2023-07-07T07:53:08.958Z,19.00
2023-07-07T07:55:35.843Z,19.00
2023-07-07T07:58:02.702Z,19.00
2023-07-07T08:00:29.515Z,19.10
2023-07-07T08:02:56.493Z,19.20
2023-07-07T08:05:23.521Z,19.30
2023-07-07T08:07:50.330Z,19.40
2023-07-07T08:10:18.191Z,19.40
2023-07-07T08:12:45.029Z,19.40
2023-07-07T08:15:12.365Z,19.50
2023-07-07T08:17:39.211Z,19.60
2023-07-07T08:20:06.697Z,19.70
2023-07-07T08:22:33.514Z,19.90
2023-07-07T08:25:00.266Z,20.00
2023-07-07T08:29:57.652Z,20.10
2023-07-07T08:32:24.578Z,20.20
2023-07-07T08:34:54.631Z,20.30
2023-07-07T08:37:23.284Z,20.40
2023-07-07T08:39:51.171Z,20.40
2023-07-07T08:42:38.261Z,20.40
2023-07-07T08:45:26.553Z,20.50
2023-07-07T08:48:14.617Z,20.60
2023-07-07T08:50:52.656Z,20.60
2023-07-07T08:53:34.730Z,20.70
2023-07-07T08:56:07.701Z,20.80
2023-07-07T08:58:46.353Z,20.80
2023-07-07T09:01:35.054Z,21.00
2023-07-07T09:04:42.339Z,21.10
2023-07-07T09:07:40.787Z,21.10
2023-07-07T09:10:19.627Z,21.20
2023-07-07T09:12:48.907Z,21.40
2023-07-07T09:15:27.016Z,21.50
2023-07-07T09:17:57.010Z,21.60
2023-07-07T09:20:24.248Z,21.60
2023-07-07T09:22:58.657Z,21.70
2023-07-07T09:25:50.122Z,21.80
2023-07-07T09:28:17.334Z,21.80
2023-07-07T09:30:48.422Z,21.90
2023-07-07T09:33:19.262Z,22.00
2023-07-07T09:36:13.251Z,22.00
2023-07-07T09:38:45.986Z,22.10
2023-07-07T09:41:34.379Z,22.30
2023-07-07T09:44:38.964Z,22.50
2023-07-07T09:47:17.330Z,22.50
2023-07-07T09:49:52.724Z,22.60
2023-07-07T09:52:28.878Z,22.80
2023-07-07T09:54:55.841Z,23.00
2023-07-07T09:57:31.777Z,23.10
2023-07-07T09:59:59.802Z,23.20
2023-07-07T10:02:26.711Z,23.40
2023-07-07T10:05:02.371Z,23.50
2023-07-07T10:07:32.474Z,23.70
2023-07-07T10:10:00.265Z,23.70
2023-07-07T10:12:31.957Z,23.90
2023-07-07T10:15:03.166Z,24.10
2023-07-07T10:18:06.645Z,24.50
2023-07-07T10:20:33.476Z,25.00
2023-07-07T10:23:00.297Z,25.40
2023-07-07T10:25:28.622Z,25.70
2023-07-07T10:27:55.387Z,26.10
2023-07-07T10:30:24.653Z,26.40
2023-07-07T10:32:52.695Z,26.60
2023-07-07T10:35:20.540Z,26.90
2023-07-07T10:37:47.532Z,27.20
2023-07-07T10:40:16.514Z,27.50
2023-07-07T10:42:43.304Z,27.70
2023-07-07T10:45:10.388Z,27.90
2023-07-07T10:47:37.931Z,28.10
2023-07-07T10:50:10.710Z,28.20
2023-07-07T10:53:23.381Z,28.40
2023-07-07T10:55:41.297Z,28.50
2023-07-07T10:58:24.953Z,28.60
2023-07-07T11:03:27.947Z,27.80
2023-07-07T11:06:20.617Z,27.30
2023-07-07T11:08:59.384Z,27.00
2023-07-07T11:11:35.759Z,26.70
2023-07-07T11:14:27.102Z,26.60
2023-07-07T11:17:11.269Z,26.50
2023-07-07T11:19:42.638Z,26.40
2023-07-07T11:22:15.527Z,26.40
2023-07-07T11:24:56.728Z,26.30
2023-07-07T11:27:33.161Z,26.40
2023-07-07T11:30:12.764Z,26.30
2023-07-07T11:32:42.590Z,26.30
2023-07-07T11:35:19.987Z,26.30
2023-07-07T11:37:56.692Z,26.30
2023-07-07T11:40:49.019Z,26.30
2023-07-07T11:43:36.878Z,26.40
2023-07-07T11:46:09.596Z,26.40
2023-07-07T11:48:41.504Z,26.30
2023-07-07T11:51:28.214Z,26.30
2023-07-07T11:54:13.503Z,26.50
2023-07-07T11:56:47.643Z,26.50
2023-07-07T11:59:45.238Z,26.60
2023-07-07T12:02:27.645Z,26.60
2023-07-07T12:04:55.366Z,26.90
2023-07-07T12:07:39.913Z,26.80
2023-07-07T12:10:27.784Z,26.90
2023-07-07T12:13:03.676Z,27.00
2023-07-07T12:15:49.044Z,27.10
2023-07-07T12:18:33.688Z,27.00
2023-07-07T12:21:08.919Z,27.10
2023-07-07T12:23:38.912Z,27.10
2023-07-07T12:26:15.769Z,27.10
2023-07-07T12:28:44.747Z,27.40
2023-07-07T12:31:11.557Z,27.50
2023-07-07T12:33:42.514Z,27.50
2023-07-07T12:36:09.463Z,27.50
2023-07-07T12:38:37.488Z,27.50
2023-07-07T12:41:13.547Z,27.70
2023-07-07T12:43:50.698Z,27.60
2023-07-07T12:46:29.925Z,27.40
2023-07-07T12:48:59.205Z,27.40
2023-07-07T12:51:28.420Z,27.40
2023-07-07T12:53:55.950Z,27.30
2023-07-07T12:56:25.076Z,27.40
2023-07-07T12:58:56.637Z,27.60
2023-07-07T13:01:26.418Z,27.60
2023-07-07T13:04:08.801Z,27.70
2023-07-07T13:06:38.005Z,27.70
2023-07-07T13:09:14.097Z,27.80
2023-07-07T13:11:50.983Z,28.10
2023-07-07T13:14:35.442Z,28.30
2023-07-07T13:17:26.130Z,28.40
2023-07-07T13:19:57.540Z,28.50
2023-07-07T13:22:29.509Z,28.50
2023-07-07T13:25:00.315Z,28.50
2023-07-07T13:27:30.391Z,28.60
2023-07-07T13:30:35.409Z,28.80
2023-07-07T13:33:06.654Z,28.90
2023-07-07T13:35:34.744Z,28.90
2023-07-07T13:38:07.769Z,28.80
2023-07-07T13:40:37.770Z,28.80
2023-07-07T13:43:04.608Z,28.60
2023-07-07T13:45:34.492Z,28.70
2023-07-07T13:48:01.538Z,28.80
2023-07-07T13:50:30.255Z,28.90
2023-07-07T13:53:01.906Z,29.00
2023-07-07T13:55:30.175Z,29.10
2023-07-07T13:57:57.230Z,29.30
2023-07-07T14:00:32.159Z,29.40
2023-07-07T14:02:59.232Z,29.50
2023-07-07T14:05:28.998Z,29.70
2023-07-07T14:07:55.818Z,29.80
2023-07-07T14:10:29.969Z,30.00
2023-07-07T14:12:58.057Z,30.60
2023-07-07T14:15:58.062Z,31.40
2023-07-07T14:18:35.995Z,31.90
2023-07-07T14:21:02.802Z,32.30
2023-07-07T14:23:30.587Z,32.60
2023-07-07T14:25:58.532Z,33.10
2023-07-07T14:28:35.936Z,33.50
2023-07-07T14:31:03.953Z,33.60
2023-07-07T14:33:37.724Z,33.80
2023-07-07T14:36:04.778Z,34.00
2023-07-07T14:38:36.324Z,34.10
2023-07-07T14:41:16.484Z,34.50
2023-07-07T14:43:43.337Z,34.50
2023-07-07T14:46:15.483Z,34.40
2023-07-07T14:48:51.925Z,34.40
2023-07-07T14:51:22.964Z,33.90
2023-07-07T14:53:57.355Z,33.90
2023-07-07T14:56:34.158Z,34.30
2023-07-07T14:59:02.273Z,34.30
2023-07-07T15:01:30.992Z,34.10
2023-07-07T15:04:00.037Z,33.90
2023-07-07T15:06:34.374Z,34.00
2023-07-07T15:09:01.132Z,34.20
2023-07-07T15:11:34.467Z,34.50
2023-07-07T15:14:03.959Z,34.70
2023-07-07T15:16:30.960Z,35.00
2023-07-07T15:18:57.733Z,35.30
2023-07-07T15:21:26.226Z,35.60
2023-07-07T15:23:53.258Z,35.40
2023-07-07T15:26:28.888Z,35.30
2023-07-07T15:28:55.828Z,35.30
2023-07-07T15:31:23.184Z,35.30
2023-07-07T15:33:50.090Z,35.10
2023-07-07T15:36:17.322Z,35.40
2023-07-07T15:38:44.056Z,35.70
2023-07-07T15:41:15.761Z,35.90
2023-07-07T15:43:42.538Z,36.20
2023-07-07T15:46:16.102Z,36.50
2023-07-07T15:48:43.028Z,36.50
2023-07-07T15:51:25.460Z,36.30
2023-07-07T15:53:55.683Z,36.30
2023-07-07T15:56:23.091Z,36.50
2023-07-07T15:58:49.957Z,36.30
2023-07-07T16:01:16.829Z,36.30
2023-07-07T16:03:43.629Z,36.20
2023-07-07T16:06:10.735Z,36.10
2023-07-07T16:08:37.562Z,36.30
2023-07-07T16:11:14.940Z,36.40
2023-07-07T16:13:43.205Z,36.60
2023-07-07T16:16:14.754Z,36.30
2023-07-07T16:18:42.137Z,36.30
2023-07-07T16:21:12.917Z,36.40
2023-07-07T16:23:39.655Z,36.50
2023-07-07T16:26:08.680Z,36.60
2023-07-07T16:28:36.144Z,36.80
2023-07-07T16:31:03.154Z,36.90
2023-07-07T16:33:30.099Z,37.00
2023-07-07T16:35:56.903Z,36.60
2023-07-07T16:38:23.660Z,36.60
2023-07-07T16:40:52.425Z,36.80
2023-07-07T16:43:19.404Z,36.70
2023-07-07T16:45:46.325Z,36.70
2023-07-07T16:48:14.492Z,36.50
2023-07-07T16:50:42.145Z,36.20
2023-07-07T16:53:09.001Z,36.30
2023-07-07T16:55:35.854Z,36.50
2023-07-07T16:58:02.630Z,36.70
2023-07-07T17:00:31.781Z,36.90
2023-07-07T17:02:58.741Z,36.90
2023-07-07T17:05:25.793Z,36.90
2023-07-07T17:07:52.624Z,36.80
2023-07-07T17:10:32.419Z,36.70
2023-07-07T17:12:59.281Z,36.70
2023-07-07T17:15:26.167Z,36.50
2023-07-07T17:17:52.999Z,36.40
2023-07-07T17:20:22.061Z,36.30
2023-07-07T17:22:49.431Z,36.40
2023-07-07T17:25:16.743Z,36.50
2023-07-07T17:27:44.103Z,36.40
2023-07-07T17:30:21.831Z,36.30
2023-07-07T17:32:50.360Z,36.30
2023-07-07T17:35:18.138Z,36.30
2023-07-07T17:37:46.570Z,36.30
2023-07-07T17:40:19.329Z,36.00
2023-07-07T17:42:47.055Z,35.80
2023-07-07T17:45:14.559Z,35.90
2023-07-07T17:47:41.663Z,36.00
2023-07-07T17:50:19.988Z,35.80
2023-07-07T17:52:46.901Z,35.80
2023-07-07T17:55:14.718Z,35.90
2023-07-07T17:57:46.507Z,36.00
2023-07-07T18:00:15.681Z,36.10
2023-07-07T18:02:42.868Z,36.00
2023-07-07T18:05:10.185Z,35.60
2023-07-07T18:07:37.045Z,35.60
2023-07-07T18:10:10.879Z,35.50
2023-07-07T18:12:38.023Z,35.30
2023-07-07T18:15:05.827Z,35.10
2023-07-07T18:17:45.324Z,35.10
2023-07-07T18:21:00.585Z,35.00
2023-07-07T18:23:16.188Z,35.00
2023-07-07T18:25:43.015Z,35.00
2023-07-07T18:28:12.497Z,34.90
2023-07-07T18:30:52.566Z,34.60
2023-07-07T18:33:19.402Z,34.40
2023-07-07T18:35:46.180Z,34.30
2023-07-07T18:38:17.535Z,34.20
2023-07-07T18:40:44.360Z,34.10
2023-07-07T18:43:11.183Z,34.00
2023-07-07T18:45:38.050Z,34.00
2023-07-07T18:48:06.455Z,33.80
2023-07-07T18:50:36.302Z,33.70
2023-07-07T18:53:03.122Z,33.50
2023-07-07T18:55:30.387Z,33.30
2023-07-07T18:57:57.436Z,33.10
2023-07-07T19:00:39.845Z,32.70
2023-07-07T19:03:07.807Z,32.40
2023-07-07T19:05:34.772Z,32.00
2023-07-07T19:08:01.618Z,31.70
2023-07-07T19:10:39.247Z,31.40
2023-07-07T19:13:16.087Z,31.10
2023-07-07T19:15:44.203Z,30.80
2023-07-07T19:18:16.279Z,30.60
2023-07-07T19:20:43.047Z,30.40
2023-07-07T19:23:11.493Z,30.10
2023-07-07T19:25:38.456Z,29.80
2023-07-07T19:28:05.447Z,29.60
2023-07-07T19:30:35.549Z,29.50
2023-07-07T19:33:02.423Z,29.30
2023-07-07T19:35:29.173Z,29.00
2023-07-07T19:37:55.983Z,28.70
2023-07-07T19:40:30.120Z,28.50
2023-07-07T19:42:57.026Z,28.30
2023-07-07T19:45:23.835Z,28.10
2023-07-07T19:47:50.607Z,28.00
2023-07-07T19:50:28.918Z,27.90
2023-07-07T19:52:55.759Z,27.70
2023-07-07T19:55:22.524Z,27.60
2023-07-07T19:57:49.338Z,27.40
2023-07-07T20:00:25.243Z,27.30
2023-07-07T20:02:52.143Z,27.10
2023-07-07T20:05:19.182Z,26.90
2023-07-07T20:07:46.003Z,26.80
2023-07-07T20:10:22.378Z,26.80
2023-07-07T20:12:52.048Z,26.60
2023-07-07T20:15:18.848Z,26.50
2023-07-07T20:17:45.844Z,26.40
2023-07-07T20:20:18.570Z,26.40
2023-07-07T20:22:46.276Z,26.20
2023-07-07T20:25:13.929Z,26.10
2023-07-07T20:27:40.999Z,26.00
2023-07-07T20:30:22.883Z,25.90
2023-07-07T20:32:52.718Z,25.80
2023-07-07T20:35:23.015Z,25.70
2023-07-07T20:37:51.132Z,25.60
2023-07-07T20:40:25.879Z,25.50
2023-07-07T20:42:52.769Z,25.40
2023-07-07T20:45:20.753Z,25.40
2023-07-07T20:47:47.880Z,25.30
2023-07-07T20:50:25.440Z,25.20
2023-07-07T20:52:52.561Z,25.20
2023-07-07T20:55:19.912Z,25.10
2023-07-07T20:57:47.061Z,25.10
2023-07-07T21:00:24.320Z,25.00
2023-07-07T21:02:51.214Z,24.90
2023-07-07T21:05:18.157Z,24.80
2023-07-07T21:07:45.182Z,24.80
2023-07-07T21:10:32.331Z,24.70
2023-07-07T21:12:59.257Z,24.70
2023-07-07T21:15:26.304Z,24.60
2023-07-07T21:17:53.725Z,24.50
2023-07-07T21:20:33.661Z,24.50
2023-07-07T21:23:08.018Z,24.40
2023-07-07T21:25:34.863Z,24.40
2023-07-07T21:28:01.912Z,24.20
2023-07-07T21:30:29.285Z,24.20
2023-07-07T21:32:56.129Z,24.20
2023-07-07T21:35:23.044Z,24.10
2023-07-07T21:37:49.931Z,24.10
2023-07-07T21:40:21.803Z,24.00
2023-07-07T21:42:49.094Z,24.00
2023-07-07T21:45:18.595Z,23.90
2023-07-07T21:47:53.941Z,23.90
2023-07-07T21:50:22.015Z,23.90
2023-07-07T21:52:49.818Z,23.80
2023-07-07T21:55:17.016Z,23.80
2023-07-07T21:57:56.734Z,23.70
2023-07-07T22:00:30.285Z,23.70
2023-07-07T22:03:02.363Z,23.60
2023-07-07T22:05:30.037Z,23.60
2023-07-07T22:07:56.933Z,23.50
2023-07-07T22:10:29.043Z,23.50
2023-07-07T22:12:57.088Z,23.40
2023-07-07T22:15:24.234Z,23.40
2023-07-07T22:17:51.066Z,23.30
2023-07-07T22:20:20.807Z,23.30
2023-07-07T22:22:47.561Z,23.30
2023-07-07T22:25:14.429Z,23.30
2023-07-07T22:27:41.218Z,23.20
2023-07-07T22:30:28.259Z,23.20
2023-07-07T22:32:55.280Z,23.20
2023-07-07T22:35:22.126Z,23.10
2023-07-07T22:37:48.912Z,23.10
2023-07-07T22:40:20.165Z,23.10
2023-07-07T22:42:47.122Z,23.10
2023-07-07T22:45:14.203Z,23.10
2023-07-07T22:47:41.169Z,23.10
2023-07-07T22:50:26.286Z,23.00
2023-07-07T22:52:53.072Z,23.00
2023-07-07T22:55:27.416Z,23.00
2023-07-07T22:57:54.374Z,22.90
2023-07-07T23:00:28.732Z,22.90
2023-07-07T23:02:56.020Z,22.80
2023-07-07T23:05:24.461Z,22.80
2023-07-07T23:07:51.701Z,22.80
2023-07-07T23:10:21.765Z,22.70
2023-07-07T23:12:48.781Z,22.80
2023-07-07T23:15:17.221Z,22.70
2023-07-07T23:17:44.256Z,22.60
2023-07-07T23:20:23.322Z,22.60
2023-07-07T23:22:55.124Z,22.60
2023-07-07T23:25:23.682Z,22.60
2023-07-07T23:28:03.055Z,22.50
2023-07-07T23:30:41.717Z,22.50
2023-07-07T23:33:10.718Z,22.40
2023-07-07T23:35:42.276Z,22.30
2023-07-07T23:38:10.893Z,22.30
2023-07-07T23:40:37.921Z,22.40
2023-07-07T23:43:07.646Z,22.30
2023-07-07T23:45:34.649Z,22.30
2023-07-07T23:48:02.283Z,22.30
2023-07-07T23:50:34.627Z,22.20
2023-07-07T23:53:01.510Z,22.20
2023-07-07T23:55:30.696Z,22.20
2023-07-07T23:57:57.516Z,22.20
